Time;durP1;ratioP1;P1;durP2;ratioP2;P2;SDS_P1;SDS_P2;PMS_P1;PMS_P2;Temp;Humidity;BMP_temperature;BMP_pressure;BME280_temperature;BME280_humidity;BME280_pressure;Samples;Min_cycle;Max_cycle;Signal;HPM_P1;HPM_P2
2024/02/12 00:03:58;;;;;;;1.60;1.40;;;10.40;44.30;;;;;;10528809;27;20251;-70
2024/02/12 00:09:03;;;;;;;1.40;1.30;;;10.40;44.50;;;;;;10529491;28;20223;-70
2024/02/12 00:14:08;;;;;;;1.47;1.37;;;10.40;44.30;;;;;;10527216;28;20295;-70
2024/02/12 00:19:12;;;;;;;1.47;1.40;;;10.40;44.30;;;;;;10528690;28;20289;-70
2024/02/12 00:24:15;;;;;;;1.43;1.33;;;10.40;44.30;;;;;;10533417;28;20231;-70
2024/02/12 00:29:20;;;;;;;1.50;1.40;;;10.40;44.20;;;;;;10525411;28;20314;-70
2024/02/12 00:34:23;;;;;;;1.30;1.23;;;10.50;43.90;;;;;;10530186;28;20230;-70
2024/02/12 00:39:27;;;;;;;1.17;1.10;;;10.50;44.10;;;;;;10523699;28;20223;-70
2024/02/12 00:44:33;;;;;;;1.63;1.40;;;10.40;44.00;;;;;;10529283;28;20310;-70
2024/02/12 00:49:40;;;;;;;1.00;0.90;;;10.50;44.00;;;;;;10530102;28;20231;-70
2024/02/12 00:54:43;;;;;;;1.10;1.10;;;10.50;44.00;;;;;;10533345;28;20318;-70
2024/02/12 00:59:47;;;;;;;1.10;1.10;;;10.50;44.00;;;;;;10524900;28;20244;-70
2024/02/12 01:04:52;;;;;;;1.07;1.03;;;10.50;43.90;;;;;;10530697;28;20228;-70
2024/02/12 01:09:55;;;;;;;3.87;1.20;;;10.50;44.00;;;;;;10526637;28;20593;-70
2024/02/12 01:15:00;;;;;;;0.80;0.80;;;10.50;43.90;;;;;;10525341;28;20223;-70
2024/02/12 01:20:07;;;;;;;1.00;0.90;;;10.50;43.70;;;;;;10526257;28;20222;-71
2024/02/12 01:25:11;;;;;;;0.80;0.80;;;10.50;43.90;;;;;;10523750;28;20230;-71
2024/02/12 01:30:17;;;;;;;1.00;1.00;;;10.60;43.80;;;;;;10527938;28;20251;-71
2024/02/12 01:35:20;;;;;;;1.20;1.10;;;10.60;43.70;;;;;;10526004;28;20740;-71
2024/02/12 01:40:23;;;;;;;0.90;0.90;;;10.60;43.70;;;;;;10521011;28;20238;-71
2024/02/12 01:45:28;;;;;;;2.37;1.00;;;10.60;43.60;;;;;;10521164;28;20220;-71
2024/02/12 01:50:33;;;;;;;1.00;0.90;;;10.60;43.50;;;;;;10535392;28;20308;-71
2024/02/12 01:55:36;;;;;;;1.10;1.00;;;10.60;43.60;;;;;;10535536;28;20860;-71
2024/02/12 02:00:45;;;;;;;1.07;0.87;;;10.60;43.80;;;;;;10529529;28;20235;-71
2024/02/12 02:05:48;;;;;;;0.90;0.90;;;10.50;43.60;;;;;;10526076;28;20710;-71
2024/02/12 02:10:51;;;;;;;0.90;0.90;;;10.50;43.60;;;;;;10536036;28;20224;-71
2024/02/12 02:15:56;;;;;;;0.90;0.90;;;10.50;43.60;;;;;;10531137;28;20231;-71
2024/02/12 02:21:00;;;;;;;0.83;0.83;;;10.50;43.60;;;;;;10531165;28;20251;-71
2024/02/12 02:26:04;;;;;;;0.70;0.70;;;10.50;43.60;;;;;;10534165;28;20306;-71
2024/02/12 02:31:08;;;;;;;1.90;0.93;;;10.50;43.60;;;;;;10527294;28;20235;-71
2024/02/12 02:36:11;;;;;;;1.00;0.90;;;10.50;43.70;;;;;;10532809;27;20306;-71
2024/02/12 02:41:17;;;;;;;1.37;0.90;;;10.50;43.60;;;;;;10531436;27;20301;-71
2024/02/12 02:46:26;;;;;;;0.90;0.80;;;10.50;43.60;;;;;;10531115;28;20228;-71
2024/02/12 02:51:30;;;;;;;0.70;0.70;;;10.40;44.40;;;;;;10534348;28;20227;-70
2024/02/12 02:56:35;;;;;;;0.80;0.80;;;10.40;43.70;;;;;;10529061;28;20261;-71
2024/02/12 03:01:39;;;;;;;0.80;0.80;;;10.40;43.60;;;;;;10530500;28;20219;-71
2024/02/12 03:06:42;;;;;;;0.80;0.80;;;10.40;43.80;;;;;;10526378;28;20840;-71
2024/02/12 03:11:51;;;;;;;1.00;0.87;;;10.40;43.60;;;;;;10524775;28;20227;-67
2024/02/12 03:16:55;;;;;;;0.97;0.87;;;10.40;43.50;;;;;;10532010;28;20281;-67
2024/02/12 03:21:58;;;;;;;1.00;0.80;;;10.40;43.80;;;;;;10528658;28;20223;-71
2024/02/12 03:27:03;;;;;;;0.90;0.90;;;10.40;43.80;;;;;;10529482;28;20292;-71
2024/02/12 03:32:06;;;;;;;1.27;0.90;;;10.40;43.60;;;;;;10527404;28;20771;-72
2024/02/12 03:37:10;;;;;;;0.70;0.70;;;10.40;43.60;;;;;;10533767;27;20224;-73
2024/02/12 03:42:16;;;;;;;0.87;0.87;;;10.40;43.60;;;;;;10532443;28;21061;-72
2024/02/12 03:47:27;;;;;;;1.20;0.90;;;10.40;43.60;;;;;;10526617;28;20234;-70
2024/02/12 04:03:16;;;;;;;0.80;0.80;;;10.30;43.60;;;;;;10530417;28;20319;-72
2024/02/12 04:08:20;;;;;;;0.80;0.80;;;10.30;43.50;;;;;;10529322;28;20231;-72
2024/02/12 04:13:25;;;;;;;1.80;0.93;;;10.30;43.60;;;;;;10538340;28;20285;-72
2024/02/12 04:18:30;;;;;;;1.17;0.90;;;10.30;43.60;;;;;;10524832;28;20226;-72
2024/02/12 04:23:33;;;;;;;0.90;0.90;;;10.30;43.50;;;;;;10525841;28;20243;-73
2024/02/12 04:28:40;;;;;;;0.70;0.70;;;10.30;43.40;;;;;;10530828;28;20668;-73
2024/02/12 04:33:44;;;;;;;1.00;0.87;;;10.30;43.50;;;;;;10527501;28;20270;-72
2024/02/12 04:38:47;;;;;;;1.00;0.90;;;10.30;43.70;;;;;;10529109;28;20220;-72
2024/02/12 04:43:52;;;;;;;0.90;0.80;;;10.30;43.70;;;;;;10522046;28;20231;-71
2024/02/12 04:48:58;;;;;;;0.80;0.80;;;10.30;43.70;;;;;;10527007;28;20277;-71
2024/02/12 04:54:01;;;;;;;0.97;0.83;;;10.30;43.60;;;;;;10526855;28;20306;-71
2024/02/12 04:59:11;;;;;;;1.33;0.80;;;10.30;43.70;;;;;;10524815;28;20656;-72
2024/02/12 05:04:17;;;;;;;0.93;0.83;;;10.30;43.30;;;;;;10530739;28;20219;-72
2024/02/12 05:09:20;;;;;;;0.80;0.80;;;10.40;43.70;;;;;;10523438;28;20227;-73
2024/02/12 05:14:27;;;;;;;1.33;0.70;;;10.30;43.70;;;;;;10528174;28;20223;-72
2024/02/12 05:24:50;;;;;;;0.70;0.70;;;10.40;43.90;;;;;;10534203;28;20670;-73
2024/02/12 05:29:55;;;;;;;0.80;0.80;;;10.40;43.90;;;;;;10536232;28;20653;-70
2024/02/12 05:34:59;;;;;;;0.70;0.70;;;10.30;43.80;;;;;;10534351;28;20227;-70
2024/02/12 05:40:03;;;;;;;1.03;1.03;;;10.30;43.70;;;;;;10537118;28;20226;-70
2024/02/12 05:45:09;;;;;;;1.20;1.10;;;10.30;43.90;;;;;;10535857;28;20238;-70
2024/02/12 05:50:13;;;;;;;2.00;1.60;;;10.40;44.00;;;;;;10535752;28;20317;-70
2024/02/12 05:55:16;;;;;;;1.60;1.07;;;10.40;44.00;;;;;;10532190;28;20239;-70
2024/02/12 06:00:22;;;;;;;4.50;3.80;;;10.40;43.90;;;;;;10540024;28;20706;-67
2024/02/12 06:05:25;;;;;;;1.97;1.80;;;10.40;43.80;;;;;;10530443;28;20284;-68
2024/02/12 06:10:29;;;;;;;1.00;1.00;;;10.50;43.80;;;;;;10536803;28;20235;-67
2024/02/12 06:15:33;;;;;;;2.20;2.10;;;10.50;43.80;;;;;;10535858;28;20231;-67
2024/02/12 06:20:37;;;;;;;1.67;1.57;;;10.50;43.80;;;;;;10535122;28;20227;-67
2024/02/12 06:25:40;;;;;;;1.17;1.07;;;10.50;43.70;;;;;;10539429;28;20758;-67
2024/02/12 06:30:46;;;;;;;1.80;1.70;;;10.50;43.60;;;;;;10533478;28;20311;-67
2024/02/12 06:35:49;;;;;;;1.00;1.00;;;10.60;43.60;;;;;;10530378;28;20297;-67
2024/02/12 06:40:52;;;;;;;2.13;1.00;;;10.60;43.70;;;;;;10538388;28;20220;-67
2024/02/12 06:45:58;;;;;;;1.60;1.20;;;10.60;43.60;;;;;;10535333;28;20281;-67
2024/02/12 06:51:08;;;;;;;0.80;0.80;;;10.60;43.80;;;;;;10534764;28;20223;-70
2024/02/12 06:56:12;;;;;;;0.70;0.70;;;10.60;43.80;;;;;;10532018;28;20224;-71
2024/02/12 07:01:17;;;;;;;0.90;0.90;;;10.50;43.70;;;;;;10532863;28;20220;-71
2024/02/12 07:06:22;;;;;;;1.00;0.90;;;10.60;43.60;;;;;;10525778;28;20318;-71
2024/02/12 07:11:27;;;;;;;3.13;2.83;;;10.60;43.80;;;;;;10532176;28;20219;-73
2024/02/12 07:16:31;;;;;;;1.00;1.00;;;10.60;43.80;;;;;;10534291;28;20258;-73
2024/02/12 07:21:35;;;;;;;0.93;0.93;;;10.50;43.80;;;;;;10521785;28;20215;-73
2024/02/12 07:26:39;;;;;;;1.00;0.93;;;10.50;43.80;;;;;;10517114;27;20215;-72
2024/02/12 07:31:44;;;;;;;1.43;1.33;;;10.50;43.80;;;;;;10514279;28;20235;-72
2024/02/12 07:36:47;;;;;;;1.10;1.07;;;10.50;43.90;;;;;;10522998;28;20708;-73
2024/02/12 07:41:52;;;;;;;1.00;0.90;;;10.50;44.00;;;;;;10520381;28;20223;-72
2024/02/12 07:46:57;;;;;;;1.10;0.90;;;10.50;44.10;;;;;;10503937;28;20231;-73
2024/02/12 07:52:01;;;;;;;1.20;1.10;;;10.50;44.10;;;;;;10520405;28;20219;-73
2024/02/12 07:57:06;;;;;;;1.17;1.00;;;10.50;44.90;;;;;;10519879;28;20218;-67
2024/02/12 08:02:10;;;;;;;0.87;0.87;;;10.50;44.00;;;;;;10525979;28;20227;-67
2024/02/12 08:07:14;;;;;;;1.60;1.00;;;10.60;44.10;;;;;;10522635;28;20338;-67
2024/02/12 08:12:19;;;;;;;1.23;1.00;;;10.60;44.10;;;;;;10525154;28;20342;-68
2024/02/12 08:17:24;;;;;;;1.53;1.10;;;10.60;44.00;;;;;;10529135;28;20724;-67
2024/02/12 08:22:31;;;;;;;1.23;1.13;;;10.70;44.00;;;;;;10527624;28;20227;-67
2024/02/12 08:27:34;;;;;;;1.30;1.20;;;10.70;44.00;;;;;;10530572;27;20242;-67
2024/02/12 08:32:41;;;;;;;1.87;1.13;;;10.80;44.10;;;;;;10528757;28;20598;-68
2024/02/12 08:37:44;;;;;;;1.33;1.30;;;10.90;43.90;;;;;;10530555;28;20595;-68
2024/02/12 08:42:50;;;;;;;1.50;0.97;;;10.90;44.10;;;;;;10528625;28;20212;-68
2024/02/12 08:47:55;;;;;;;0.90;0.90;;;11.00;43.90;;;;;;10527448;28;20647;-68
2024/02/12 08:52:59;;;;;;;0.90;0.90;;;11.10;43.80;;;;;;10529360;27;20230;-68
2024/02/12 08:58:05;;;;;;;1.10;1.10;;;11.10;43.70;;;;;;10543990;27;20295;-68
2024/02/12 09:03:11;;;;;;;1.20;1.10;;;11.20;44.00;;;;;;10534014;28;21023;-68
2024/02/12 09:08:15;;;;;;;1.30;1.20;;;11.20;44.00;;;;;;10539532;27;20235;-68
2024/02/12 09:13:18;;;;;;;1.03;1.03;;;11.30;43.90;;;;;;10547670;27;20817;-69
2024/02/12 09:18:22;;;;;;;1.50;1.40;;;11.40;43.60;;;;;;10537073;27;20229;-69
2024/02/12 09:23:26;;;;;;;2.10;1.20;;;11.50;43.20;;;;;;10544922;27;20606;-73
2024/02/12 09:28:30;;;;;;;6.30;4.03;;;11.50;43.30;;;;;;10539021;27;20238;-75
2024/02/12 09:33:35;;;;;;;3.57;3.27;;;11.60;43.30;;;;;;10537484;27;20250;-73
2024/02/12 09:38:39;;;;;;;2.03;1.83;;;11.50;42.90;;;;;;10536679;27;20752;-73
2024/02/12 09:43:43;;;;;;;2.63;1.93;;;11.60;43.10;;;;;;10538669;28;20223;-73
2024/02/12 09:48:49;;;;;;;2.27;1.80;;;11.60;43.00;;;;;;10545366;28;20222;-73
2024/02/12 09:53:55;;;;;;;3.20;1.93;;;11.60;43.00;;;;;;10542060;27;20227;-73
2024/02/12 09:58:58;;;;;;;1.80;1.70;;;11.60;42.70;;;;;;10543236;27;20227;-73
2024/02/12 10:04:04;;;;;;;2.57;1.80;;;11.60;43.00;;;;;;10531266;27;20228;-71
2024/02/12 10:09:08;;;;;;;2.67;2.00;;;11.70;42.80;;;;;;10533898;28;20665;-70
2024/02/12 10:14:13;;;;;;;2.40;2.20;;;11.70;42.60;;;;;;10531641;28;20307;-70
2024/02/12 10:19:19;;;;;;;2.20;2.00;;;11.70;42.70;;;;;;10533578;28;20691;-70
2024/02/12 10:24:23;;;;;;;2.43;2.10;;;11.70;42.40;;;;;;10536854;28;20228;-70
2024/02/12 10:29:27;;;;;;;2.33;2.07;;;11.70;42.60;;;;;;10533229;27;20243;-71
2024/02/12 10:34:37;;;;;;;2.97;2.17;;;11.80;42.80;;;;;;10528273;28;20742;-70
2024/02/12 10:39:42;;;;;;;2.60;2.40;;;11.90;42.30;;;;;;10532683;28;20235;-71
2024/02/12 10:44:49;;;;;;;3.93;2.50;;;11.90;41.90;;;;;;10530531;27;20787;-70
2024/02/12 10:49:55;;;;;;;3.10;2.30;;;11.90;42.10;;;;;;10538034;28;20254;-70
2024/02/12 10:54:59;;;;;;;4.07;2.77;;;12.00;41.70;;;;;;10528682;28;20243;-70
2024/02/12 11:00:05;;;;;;;2.70;2.17;;;12.00;41.70;;;;;;10530860;28;20212;-67
2024/02/12 11:05:12;;;;;;;2.53;2.23;;;12.00;41.70;;;;;;10536019;28;20231;-67
2024/02/12 11:10:19;;;;;;;3.03;2.50;;;12.10;41.80;;;;;;10531326;27;20713;-67
2024/02/12 11:15:26;;;;;;;4.60;3.17;;;12.10;41.80;;;;;;10531776;28;20239;-66
2024/02/12 11:20:32;;;;;;;4.10;2.60;;;12.10;41.80;;;;;;10527887;28;20908;-67
2024/02/12 11:25:35;;;;;;;4.20;3.77;;;12.10;41.80;;;;;;10529491;28;21091;-67
2024/02/12 11:30:56;;;;;;;2.80;2.60;;;12.10;41.80;;;;;;10528573;28;20277;-67
2024/02/12 11:36:09;;;;;;;2.77;2.40;;;12.10;42.00;;;;;;10528250;28;20314;-70
2024/02/12 11:41:15;;;;;;;2.87;2.57;;;12.10;40.50;;;;;;10530549;28;20337;-70
2024/02/12 11:46:18;;;;;;;2.73;2.30;;;12.10;41.80;;;;;;10530489;28;20232;-72
2024/02/12 11:51:24;;;;;;;2.70;2.23;;;12.20;41.90;;;;;;10529028;28;20324;-72
2024/02/12 11:56:27;;;;;;;3.27;2.20;;;12.20;41.60;;;;;;10528195;28;20223;-67
2024/02/12 12:01:32;;;;;;;3.07;2.47;;;12.20;41.50;;;;;;10530128;28;20238;-67
2024/02/12 12:06:37;;;;;;;3.17;2.60;;;12.20;41.20;;;;;;10527972;27;20223;-67
2024/02/12 12:11:41;;;;;;;3.33;2.57;;;12.30;40.90;;;;;;10526537;28;20700;-67
2024/02/12 12:16:46;;;;;;;3.83;2.70;;;12.30;41.10;;;;;;10527908;28;20313;-67
2024/02/12 12:22:18;;;;;;;3.47;2.40;;;12.30;41.10;;;;;;10528354;28;20694;-67
2024/02/12 12:27:26;;;;;;;2.53;2.33;;;12.30;39.80;;;;;;10525764;28;20231;-67
2024/02/12 12:32:29;;;;;;;2.40;2.20;;;12.40;40.60;;;;;;10530051;28;20251;-67
2024/02/12 12:37:33;;;;;;;2.87;2.40;;;12.40;41.40;;;;;;10531282;27;20324;-67
2024/02/12 12:42:38;;;;;;;2.70;2.40;;;12.50;40.70;;;;;;10529146;28;20361;-70
2024/02/12 12:47:42;;;;;;;2.30;2.10;;;12.50;40.40;;;;;;10534150;28;20241;-70
2024/02/12 12:52:46;;;;;;;3.10;2.37;;;12.50;40.60;;;;;;10527364;28;20645;-70
2024/02/12 12:57:50;;;;;;;2.50;2.30;;;12.40;40.40;;;;;;10528585;27;20238;-70
2024/02/12 13:02:54;;;;;;;3.90;2.70;;;12.50;40.90;;;;;;10522937;28;20229;-70
2024/02/12 13:07:58;;;;;;;2.50;2.30;;;12.40;40.50;;;;;;10517793;28;20223;-68
2024/02/12 13:13:22;;;;;;;2.67;2.40;;;12.50;40.50;;;;;;10525190;28;20239;-67
2024/02/12 13:18:29;;;;;;;2.67;2.47;;;12.50;40.50;;;;;;10523643;28;20686;-68
2024/02/12 13:23:35;;;;;;;2.60;2.40;;;12.50;40.70;;;;;;10525814;28;20353;-70
2024/02/12 13:28:39;;;;;;;4.03;2.73;;;12.60;40.60;;;;;;10527568;27;20304;-71
2024/02/12 13:33:43;;;;;;;3.37;2.33;;;12.60;40.90;;;;;;10527844;28;20320;-71
2024/02/12 13:38:48;;;;;;;3.07;2.07;;;12.60;40.80;;;;;;10524044;28;20231;-71
2024/02/12 13:43:52;;;;;;;3.23;2.37;;;12.70;40.40;;;;;;10529222;28;20224;-71
2024/02/12 13:48:55;;;;;;;6.73;2.40;;;12.70;40.40;;;;;;10522892;28;20216;-71
2024/02/12 13:54:00;;;;;;;2.53;2.23;;;12.70;40.60;;;;;;10529663;28;20235;-71
2024/02/12 13:59:05;;;;;;;2.50;2.30;;;12.80;40.20;;;;;;10533241;28;20223;-71
2024/02/12 14:04:12;;;;;;;2.57;2.37;;;12.80;40.50;;;;;;10528873;27;20408;-71
2024/02/12 14:09:20;;;;;;;2.57;2.37;;;12.90;40.50;;;;;;10539423;27;20228;-71
2024/02/12 14:14:26;;;;;;;2.80;2.30;;;13.00;40.10;;;;;;10533328;28;20258;-71
2024/02/12 14:19:30;;;;;;;2.30;2.10;;;13.10;40.40;;;;;;10533727;28;20282;-71
2024/02/12 14:24:35;;;;;;;2.80;2.60;;;13.10;40.10;;;;;;10534418;27;20223;-71
2024/02/12 14:29:38;;;;;;;2.87;2.10;;;13.20;39.70;;;;;;10527519;28;20323;-71
2024/02/12 14:34:45;;;;;;;2.57;2.17;;;13.20;40.20;;;;;;10531547;28;20244;-71
2024/02/12 14:39:50;;;;;;;2.80;2.50;;;13.20;40.20;;;;;;10529043;28;20416;-71
2024/02/12 14:44:54;;;;;;;2.40;2.20;;;13.20;39.50;;;;;;10527593;28;20227;-71
2024/02/12 14:49:59;;;;;;;2.83;2.53;;;13.20;40.00;;;;;;10534257;28;20225;-67
2024/02/12 14:55:07;;;;;;;2.07;1.87;;;13.20;39.70;;;;;;10527286;27;20228;-68
2024/02/12 15:00:13;;;;;;;2.00;1.90;;;13.20;39.50;;;;;;10526676;28;20770;-67
2024/02/12 15:05:17;;;;;;;2.77;2.27;;;13.30;39.50;;;;;;10532575;28;20224;-67
2024/02/12 15:10:23;;;;;;;2.50;2.30;;;13.20;39.30;;;;;;10536866;28;20318;-68
2024/02/12 15:15:26;;;;;;;3.60;2.40;;;13.20;39.00;;;;;;10531520;28;20292;-68
2024/02/12 15:20:32;;;;;;;3.00;2.70;;;13.20;39.30;;;;;;10530237;28;20226;-68
2024/02/12 15:25:40;;;;;;;2.40;2.20;;;13.20;39.10;;;;;;10529110;28;20671;-68
2024/02/12 15:30:44;;;;;;;2.77;2.20;;;13.20;38.80;;;;;;10535785;28;20306;-68
2024/02/12 15:35:50;;;;;;;2.40;2.20;;;13.20;39.00;;;;;;10533197;28;21288;-68
2024/02/12 15:40:56;;;;;;;2.93;2.57;;;13.20;39.00;;;;;;10531422;28;20226;-68
2024/02/12 15:46:00;;;;;;;3.43;2.83;;;13.20;38.50;;;;;;10527890;28;20247;-68
2024/02/12 15:51:04;;;;;;;3.80;3.00;;;13.20;38.90;;;;;;10530121;28;20222;-68
2024/02/12 15:56:13;;;;;;;2.90;2.70;;;13.20;38.50;;;;;;10525344;28;20938;-70
2024/02/12 16:01:20;;;;;;;2.70;2.50;;;13.20;37.40;;;;;;10523649;28;20212;-71
2024/02/12 16:06:23;;;;;;;3.70;3.37;;;13.10;38.50;;;;;;10521317;28;20234;-71
2024/02/12 16:11:28;;;;;;;2.50;2.30;;;13.10;38.40;;;;;;10524900;28;20308;-72
2024/02/12 16:16:32;;;;;;;3.77;2.20;;;13.00;38.50;;;;;;10528134;28;20655;-75
2024/02/12 16:21:35;;;;;;;2.00;1.80;;;13.00;39.00;;;;;;10532609;28;20250;-71
2024/02/12 16:26:41;;;;;;;1.90;1.80;;;12.90;38.50;;;;;;10529902;27;20251;-71
2024/02/12 16:31:44;;;;;;;4.00;2.20;;;12.90;38.30;;;;;;10525043;28;20228;-71
2024/02/12 16:36:47;;;;;;;2.40;2.20;;;12.80;38.60;;;;;;10523430;28;20231;-71
2024/02/12 16:41:52;;;;;;;3.00;2.67;;;12.80;38.70;;;;;;10522202;28;20230;-70
2024/02/12 16:46:56;;;;;;;2.50;2.30;;;12.70;38.50;;;;;;10523821;28;20273;-71
2024/02/12 16:51:59;;;;;;;2.30;2.10;;;12.70;38.90;;;;;;10527221;28;20226;-71
2024/02/12 16:57:05;;;;;;;2.00;1.80;;;12.70;39.00;;;;;;10526707;28;20708;-71
2024/02/12 17:02:12;;;;;;;2.33;2.23;;;12.60;38.70;;;;;;10520828;28;20227;-71
2024/02/12 17:07:16;;;;;;;2.80;1.73;;;12.60;39.00;;;;;;10528343;28;20216;-71
2024/02/12 17:12:26;;;;;;;2.40;1.83;;;12.60;38.90;;;;;;10525260;28;20219;-71
2024/02/12 17:17:29;;;;;;;2.30;2.20;;;12.50;38.80;;;;;;10535321;28;20284;-72
2024/02/12 17:22:33;;;;;;;2.00;1.90;;;12.50;39.00;;;;;;10536655;28;20220;-71
2024/02/12 17:27:38;;;;;;;2.40;2.20;;;12.50;39.10;;;;;;10534115;28;20231;-68
2024/02/12 17:32:41;;;;;;;3.10;2.90;;;12.50;39.10;;;;;;10534540;28;20597;-68
2024/02/12 17:37:48;;;;;;;3.27;2.97;;;12.40;39.20;;;;;;10533082;28;20227;-72
2024/02/12 17:42:53;;;;;;;4.10;3.70;;;12.40;39.20;;;;;;10535068;28;20762;-72
2024/02/12 17:47:56;;;;;;;4.27;3.57;;;12.30;38.90;;;;;;10536366;28;20223;-68
2024/02/12 17:53:00;;;;;;;5.33;4.83;;;12.30;39.20;;;;;;10530882;28;20219;-68
2024/02/12 17:58:05;;;;;;;5.00;4.47;;;12.20;39.00;;;;;;10533884;27;20220;-71
2024/02/12 18:03:09;;;;;;;3.50;3.20;;;12.20;38.90;;;;;;10531259;28;20255;-71
2024/02/12 18:08:14;;;;;;;3.57;3.27;;;12.20;39.10;;;;;;10524866;28;20305;-71
2024/02/12 18:13:18;;;;;;;4.40;3.93;;;12.20;39.20;;;;;;10533910;28;20222;-72
2024/02/12 18:18:22;;;;;;;4.63;4.23;;;12.20;38.70;;;;;;10531644;28;20228;-71
2024/02/12 18:23:25;;;;;;;4.47;4.07;;;12.00;38.80;;;;;;10533514;28;20220;-71
2024/02/12 18:28:30;;;;;;;6.87;6.17;;;12.00;39.00;;;;;;10535317;28;20238;-71
2024/02/12 18:33:33;;;;;;;5.67;4.10;;;12.00;38.90;;;;;;10525200;28;20229;-72
2024/02/12 18:38:36;;;;;;;3.87;3.50;;;12.00;39.00;;;;;;10538210;28;20751;-71
2024/02/12 18:43:42;;;;;;;3.13;2.87;;;11.90;39.10;;;;;;10527032;28;20223;-72
2024/02/12 18:48:47;;;;;;;2.70;2.50;;;11.90;39.00;;;;;;10522121;28;20600;-72
2024/02/12 18:53:54;;;;;;;3.57;3.17;;;11.90;39.10;;;;;;10537413;28;20223;-72
2024/02/12 18:58:58;;;;;;;4.50;4.10;;;11.80;39.00;;;;;;10533955;28;20229;-71
2024/02/12 19:04:02;;;;;;;4.03;3.73;;;11.80;39.00;;;;;;10531987;28;20230;-71
2024/02/12 19:09:09;;;;;;;3.53;3.20;;;11.70;39.20;;;;;;10535510;28;20697;-72
2024/02/12 19:14:15;;;;;;;3.40;3.10;;;11.70;39.40;;;;;;10531720;28;20234;-72
2024/02/12 19:19:19;;;;;;;4.73;4.20;;;11.70;39.40;;;;;;10538325;28;20716;-72
2024/02/12 19:24:22;;;;;;;4.33;3.93;;;11.70;39.40;;;;;;10527441;28;20228;-72
2024/02/12 19:29:27;;;;;;;4.57;4.17;;;11.60;39.30;;;;;;10533794;28;20275;-72
2024/02/12 19:34:30;;;;;;;4.60;4.20;;;11.60;39.40;;;;;;10526657;28;20752;-71
2024/02/12 19:39:33;;;;;;;4.17;3.77;;;11.50;39.30;;;;;;10527424;28;20237;-72
2024/02/12 19:44:38;;;;;;;3.37;3.10;;;11.40;40.10;;;;;;10526600;28;20595;-72
2024/02/12 19:49:41;;;;;;;11.73;10.53;;;11.30;39.70;;;;;;10527734;28;20700;-72
2024/02/12 19:54:45;;;;;;;5.80;4.97;;;11.30;39.60;;;;;;10526569;28;20247;-72
2024/02/12 19:59:50;;;;;;;5.53;4.80;;;11.30;39.70;;;;;;10526823;28;20795;-72
2024/02/12 20:04:53;;;;;;;4.60;4.20;;;11.20;39.60;;;;;;10519491;28;20318;-72
2024/02/12 20:09:57;;;;;;;4.43;3.60;;;11.20;39.80;;;;;;10530718;28;20229;-68
2024/02/12 20:15:01;;;;;;;3.30;3.00;;;11.20;39.70;;;;;;10527834;28;20311;-68
2024/02/12 20:20:07;;;;;;;4.23;3.60;;;11.10;39.70;;;;;;10528679;28;20223;-68
2024/02/12 20:25:11;;;;;;;4.20;2.83;;;11.10;39.80;;;;;;10525421;28;20314;-71
2024/02/12 20:30:18;;;;;;;3.53;2.67;;;11.10;39.80;;;;;;10523276;28;20657;-71
2024/02/12 20:35:23;;;;;;;3.53;2.57;;;11.10;39.60;;;;;;10525683;28;20310;-71
2024/02/12 20:40:27;;;;;;;3.70;3.00;;;11.10;39.60;;;;;;10524450;28;20284;-72
2024/02/12 20:45:33;;;;;;;2.40;2.10;;;11.10;39.70;;;;;;10522471;28;20794;-72
2024/02/12 20:50:36;;;;;;;3.40;3.10;;;11.10;39.80;;;;;;10524604;28;20272;-72
2024/02/12 20:55:39;;;;;;;2.77;2.57;;;11.10;39.80;;;;;;10518386;28;20240;-71
2024/02/12 21:00:44;;;;;;;3.00;2.70;;;11.10;39.80;;;;;;10525290;28;20661;-71
2024/02/12 21:05:48;;;;;;;3.83;2.70;;;11.00;39.80;;;;;;10519362;28;20315;-72
2024/02/12 21:10:51;;;;;;;3.00;2.47;;;11.00;40.00;;;;;;10531421;27;20219;-68
2024/02/12 21:15:56;;;;;;;2.70;2.30;;;11.00;40.00;;;;;;10516956;28;20686;-68
2024/02/12 21:20:59;;;;;;;2.37;2.10;;;10.90;39.90;;;;;;10506237;28;21168;-68
2024/02/12 21:26:03;;;;;;;2.20;2.00;;;10.80;40.10;;;;;;10498942;28;20746;-68
2024/02/12 21:31:10;;;;;;;2.53;2.33;;;10.80;40.30;;;;;;10510018;28;20231;-68
2024/02/12 21:36:13;;;;;;;3.17;2.30;;;10.80;40.40;;;;;;10503365;28;20229;-67
2024/02/12 21:41:36;;;;;;;1.90;1.80;;;10.70;40.40;;;;;;10513867;28;20224;-68
2024/02/12 21:46:40;;;;;;;2.27;2.07;;;10.70;40.30;;;;;;10514030;28;20718;-68
2024/02/12 21:51:44;;;;;;;2.03;1.90;;;10.70;40.20;;;;;;10526630;28;20702;-68
2024/02/12 21:56:47;;;;;;;2.23;1.80;;;10.70;40.10;;;;;;10522225;28;20232;-67
2024/02/12 22:01:52;;;;;;;3.70;2.17;;;10.80;40.70;;;;;;10525746;28;20732;-67
2024/02/12 22:06:55;;;;;;;3.17;2.47;;;10.80;40.00;;;;;;10524782;28;20230;-72
2024/02/12 22:11:58;;;;;;;2.33;2.13;;;10.70;39.90;;;;;;10527630;28;20227;-72
2024/02/12 22:17:04;;;;;;;3.00;2.20;;;10.70;40.10;;;;;;10531673;28;20228;-69
2024/02/12 22:22:07;;;;;;;2.30;2.10;;;10.70;40.10;;;;;;10528972;28;20223;-69
2024/02/12 22:27:10;;;;;;;2.33;2.13;;;10.70;40.10;;;;;;10528192;28;20231;-70
2024/02/12 22:32:15;;;;;;;3.37;2.00;;;10.60;39.80;;;;;;10531315;28;20269;-70
2024/02/12 22:37:18;;;;;;;2.60;2.40;;;10.50;40.00;;;;;;10526362;28;20227;-70
2024/02/12 22:42:22;;;;;;;4.13;2.37;;;10.40;40.10;;;;;;10530765;28;20787;-69
2024/02/12 22:47:26;;;;;;;2.83;1.90;;;10.30;40.20;;;;;;10522662;28;20389;-69
2024/02/12 22:52:29;;;;;;;2.17;1.90;;;10.40;40.30;;;;;;10528129;28;20299;-72
2024/02/12 22:57:32;;;;;;;2.00;1.80;;;10.20;40.10;;;;;;10528623;28;20227;-72
2024/02/12 23:02:37;;;;;;;2.97;1.90;;;10.20;40.10;;;;;;10531797;28;20229;-72
2024/02/12 23:07:40;;;;;;;2.27;1.83;;;10.20;40.10;;;;;;10534933;28;20236;-72
2024/02/12 23:12:43;;;;;;;2.87;2.03;;;10.20;40.10;;;;;;10530623;28;20216;-70
2024/02/12 23:17:50;;;;;;;2.00;1.63;;;10.10;40.00;;;;;;10530970;28;20241;-70
2024/02/12 23:22:53;;;;;;;2.90;1.90;;;10.10;40.10;;;;;;10534886;28;20727;-70
2024/02/12 23:27:57;;;;;;;3.13;1.83;;;10.00;40.10;;;;;;10533645;28;20223;-69
2024/02/12 23:33:03;;;;;;;3.97;2.03;;;10.00;39.90;;;;;;10526405;28;20345;-70
2024/02/12 23:38:07;;;;;;;2.73;1.60;;;10.00;40.20;;;;;;10524777;28;20234;-70
2024/02/12 23:43:13;;;;;;;3.23;2.13;;;10.00;40.30;;;;;;10529944;28;20730;-70
2024/02/12 23:48:18;;;;;;;3.97;1.87;;;10.00;40.30;;;;;;10527300;28;20228;-70
2024/02/12 23:53:22;;;;;;;2.20;2.00;;;10.00;40.50;;;;;;10521158;28;20728;-70
2024/02/12 23:58:26;;;;;;;2.73;2.10;;;10.00;40.30;;;;;;10532131;28;20227;-69
